createdAt,value
2022-11-14T05:02:35.128Z,21.60
2022-11-14T05:05:01.879Z,20.05
2022-11-14T05:07:28.487Z,20.20
2022-11-14T05:09:55.132Z,21.10
2022-11-14T05:12:22.245Z,20.67
2022-11-14T05:14:48.813Z,19.58
2022-11-14T05:17:15.362Z,19.15
2022-11-14T05:19:41.905Z,19.50
2022-11-14T05:22:08.395Z,20.10
2022-11-14T05:24:34.925Z,19.13
2022-11-14T05:27:01.988Z,19.42
2022-11-14T05:29:28.463Z,19.90
2022-11-14T05:31:55.072Z,18.33
2022-11-14T05:34:22.699Z,18.47
2022-11-14T05:36:49.181Z,19.00
2022-11-14T05:39:16.652Z,19.38
2022-11-14T05:41:43.178Z,18.52
2022-11-14T05:44:09.843Z,18.60
2022-11-14T05:46:36.620Z,18.10
2022-11-14T05:49:03.431Z,18.45
2022-11-14T05:51:29.934Z,19.38
2022-11-14T05:53:57.147Z,19.42
2022-11-14T05:56:23.797Z,20.25
2022-11-14T05:58:50.344Z,19.70
2022-11-14T06:01:19.140Z,19.85
2022-11-14T06:03:47.289Z,19.23
2022-11-14T06:06:17.197Z,19.25
2022-11-14T06:08:44.432Z,19.05
2022-11-14T06:11:14.694Z,18.53
2022-11-14T06:13:41.288Z,19.33
2022-11-14T06:16:11.357Z,19.02
2022-11-14T06:18:39.004Z,19.00
2022-11-14T06:21:16.001Z,18.50
2022-11-14T06:23:42.716Z,18.83
2022-11-14T06:26:35.956Z,18.30
2022-11-14T06:29:02.855Z,18.35
2022-11-14T06:31:29.932Z,18.58
2022-11-14T06:33:58.116Z,18.38
2022-11-14T06:36:24.670Z,18.70
2022-11-14T06:38:51.291Z,18.33
2022-11-14T06:41:20.511Z,18.38
2022-11-14T06:43:49.099Z,18.92
2022-11-14T06:46:18.244Z,18.05
2022-11-14T06:48:45.917Z,18.67
2022-11-14T06:51:14.364Z,19.15
2022-11-14T06:53:41.531Z,19.00
2022-11-14T06:56:11.194Z,17.52
2022-11-14T06:58:47.283Z,18.27
2022-11-14T07:01:17.610Z,18.70
2022-11-14T07:03:45.358Z,17.73
2022-11-14T07:06:15.701Z,19.83
2022-11-14T07:08:42.319Z,18.45
2022-11-14T07:11:22.911Z,19.13
2022-11-14T07:13:54.920Z,18.07
2022-11-14T07:16:25.629Z,18.27
2022-11-14T07:18:52.459Z,18.63
2022-11-14T07:21:18.982Z,18.17
2022-11-14T07:23:45.513Z,18.23
2022-11-14T07:26:12.528Z,15.40
2022-11-14T07:28:45.950Z,17.65
2022-11-14T07:31:17.093Z,18.38
2022-11-14T07:33:44.816Z,17.98
2022-11-14T07:36:12.927Z,17.92
2022-11-14T07:38:39.913Z,18.97
2022-11-14T07:41:15.228Z,17.15
2022-11-14T07:43:42.731Z,17.02
2022-11-14T07:46:12.485Z,17.65
2022-11-14T07:48:39.000Z,17.60
2022-11-14T07:51:08.179Z,17.30
2022-11-14T07:53:35.147Z,16.55
2022-11-14T07:56:04.309Z,15.82
2022-11-14T07:58:31.033Z,16.40
2022-11-14T08:01:02.188Z,15.70
2022-11-14T08:03:29.028Z,16.53
2022-11-14T08:06:07.375Z,15.32
2022-11-14T08:08:34.672Z,15.65
2022-11-14T08:11:02.191Z,15.27
2022-11-14T08:13:32.798Z,15.05
2022-11-14T08:16:12.480Z,15.63
2022-11-14T08:18:39.664Z,15.18
2022-11-14T08:21:06.373Z,15.43
2022-11-14T08:23:32.958Z,13.20
2022-11-14T08:26:00.275Z,13.45
2022-11-14T08:28:27.974Z,12.50
2022-11-14T08:31:00.234Z,13.43
2022-11-14T08:33:26.756Z,12.25
2022-11-14T08:35:53.754Z,12.20
2022-11-14T08:38:20.279Z,12.18
2022-11-14T08:40:46.794Z,11.77
2022-11-14T08:43:13.372Z,12.32
2022-11-14T08:45:39.866Z,11.95
2022-11-14T08:48:06.620Z,10.90
2022-11-14T08:50:33.198Z,10.93
2022-11-14T08:52:59.769Z,10.93
2022-11-14T08:55:26.330Z,11.13
2022-11-14T08:57:53.896Z,10.52
2022-11-14T09:00:20.980Z,10.65
2022-11-14T09:02:47.580Z,9.77
2022-11-14T09:05:14.244Z,11.07
2022-11-14T09:07:41.142Z,10.25
2022-11-14T09:10:08.357Z,10.98
2022-11-14T09:12:35.417Z,12.57
2022-11-14T09:15:02.021Z,11.90
2022-11-14T09:17:28.522Z,12.10
2022-11-14T09:19:55.746Z,11.43
2022-11-14T09:22:22.333Z,11.40
2022-11-14T09:24:49.558Z,12.00
2022-11-14T09:27:16.187Z,12.43
2022-11-14T09:29:43.149Z,11.53
2022-11-14T09:32:09.836Z,12.50
2022-11-14T09:34:37.315Z,12.80
2022-11-14T09:37:03.868Z,12.30
2022-11-14T09:39:30.418Z,12.02
2022-11-14T09:42:16.944Z,11.90
2022-11-14T09:44:52.983Z,12.57
2022-11-14T09:47:37.824Z,12.32
2022-11-14T09:50:21.768Z,11.85
2022-11-14T09:52:57.122Z,12.27
2022-11-14T09:55:35.184Z,12.73
2022-11-14T09:58:03.844Z,12.75
2022-11-14T10:00:47.134Z,13.13
2022-11-14T10:03:22.340Z,12.60
2022-11-14T10:06:22.718Z,12.23
2022-11-14T10:09:04.490Z,12.10
2022-11-14T10:11:50.395Z,11.88
2022-11-14T10:14:45.532Z,13.05
2022-11-14T10:17:37.362Z,11.85
2022-11-14T10:20:44.125Z,11.52
2022-11-14T10:23:23.828Z,11.17
2022-11-14T10:26:08.007Z,11.10
2022-11-14T10:29:02.783Z,10.68
2022-11-14T10:31:54.179Z,10.50
2022-11-14T10:34:29.193Z,10.43
2022-11-14T10:37:41.059Z,10.93
2022-11-14T10:40:25.717Z,10.50
2022-11-14T10:43:05.893Z,10.55
2022-11-14T10:45:44.646Z,11.07
2022-11-14T10:48:17.217Z,10.52
2022-11-14T10:50:56.371Z,11.13
2022-11-14T10:53:43.568Z,10.90
2022-11-14T10:56:12.916Z,10.70
2022-11-14T10:58:48.572Z,10.80
2022-11-14T11:01:40.375Z,11.20
2022-11-14T11:04:14.549Z,10.87
2022-11-14T11:06:41.294Z,11.40
2022-11-14T11:09:31.663Z,11.60
2022-11-14T11:12:01.626Z,11.07
2022-11-14T11:14:29.274Z,10.15
2022-11-14T11:17:15.453Z,10.73
2022-11-14T11:19:42.762Z,10.75
2022-11-14T11:22:29.653Z,11.10
2022-11-14T11:24:56.570Z,11.23
2022-11-14T11:27:26.493Z,10.98
2022-11-14T11:30:15.793Z,11.83
2022-11-14T11:32:42.416Z,11.20
2022-11-14T11:35:18.215Z,11.32
2022-11-14T11:37:46.676Z,10.70
2022-11-14T11:40:22.500Z,11.32
2022-11-14T11:43:37.177Z,11.90
2022-11-14T11:45:50.014Z,11.70
2022-11-14T11:48:20.056Z,11.52
2022-11-14T11:50:47.121Z,11.30
2022-11-14T11:53:34.977Z,11.55
2022-11-14T11:56:09.580Z,10.57
2022-11-14T11:58:46.914Z,12.15
2022-11-14T12:01:14.324Z,12.05
2022-11-14T12:03:50.150Z,11.50
2022-11-14T12:06:25.444Z,11.70
2022-11-14T12:09:15.383Z,11.20
2022-11-14T12:11:47.538Z,10.77
2022-11-14T12:15:02.183Z,11.40
2022-11-14T12:17:34.646Z,11.40
2022-11-14T12:20:09.124Z,12.00
2022-11-14T12:22:54.445Z,12.60
2022-11-14T12:25:44.056Z,12.30
2022-11-14T12:28:41.645Z,12.48
2022-11-14T12:31:13.648Z,11.75
2022-11-14T12:33:46.757Z,12.23
2022-11-14T12:36:13.553Z,11.93
2022-11-14T12:38:53.779Z,12.00
2022-11-14T12:41:28.323Z,12.43
2022-11-14T12:44:17.689Z,11.52
2022-11-14T12:47:05.903Z,11.93
2022-11-14T12:49:57.213Z,11.87
2022-11-14T12:52:43.979Z,12.00
2022-11-14T12:55:25.816Z,12.00
2022-11-14T12:58:13.593Z,11.63
2022-11-14T13:01:06.675Z,11.93
2022-11-14T13:04:16.586Z,12.50
2022-11-14T13:07:03.795Z,12.20
2022-11-14T13:09:40.844Z,12.45
2022-11-14T13:12:53.470Z,12.48
2022-11-14T13:16:05.979Z,12.80
2022-11-14T13:18:52.193Z,15.10
2022-11-14T13:21:46.339Z,15.17
2022-11-14T13:24:17.880Z,16.08
2022-11-14T13:26:52.172Z,16.45
2022-11-14T13:29:47.077Z,14.93
2022-11-14T13:32:42.527Z,16.67
2022-11-14T13:35:32.351Z,16.95
2022-11-14T13:38:22.251Z,16.07
2022-11-14T13:41:27.362Z,17.65
2022-11-14T13:44:37.117Z,17.75
2022-11-14T13:47:22.478Z,17.08
2022-11-14T13:50:07.654Z,17.60
2022-11-14T13:52:40.047Z,15.83
2022-11-14T13:55:07.198Z,17.35
2022-11-14T13:57:48.705Z,17.25
2022-11-14T14:00:20.794Z,17.20
2022-11-14T14:03:10.788Z,16.13
2022-11-14T14:06:12.119Z,18.20
2022-11-14T14:08:47.595Z,18.15
2022-11-14T14:11:46.428Z,18.63
2022-11-14T14:14:34.786Z,20.50
2022-11-14T14:17:13.848Z,20.70
2022-11-14T14:20:00.620Z,19.85
2022-11-14T14:22:43.018Z,19.92
2022-11-14T14:25:12.453Z,20.37
2022-11-14T14:28:31.859Z,21.30
2022-11-14T14:31:11.985Z,21.67
2022-11-14T14:33:46.777Z,20.73
2022-11-14T14:36:21.988Z,21.45
2022-11-14T14:38:49.785Z,20.67
2022-11-14T14:41:36.168Z,18.90
2022-11-14T14:44:02.751Z,19.45
2022-11-14T14:46:32.454Z,19.37
2022-11-14T14:49:03.144Z,20.63
2022-11-14T14:51:32.749Z,20.65
2022-11-14T14:53:59.276Z,21.08
2022-11-14T14:56:26.205Z,20.17
2022-11-14T14:58:52.836Z,21.20
2022-11-14T15:01:23.651Z,20.35
2022-11-14T15:03:56.288Z,20.77
2022-11-14T15:06:34.850Z,21.50
2022-11-14T15:09:08.143Z,21.88
2022-11-14T15:11:36.335Z,22.33
2022-11-14T15:14:03.521Z,22.45
2022-11-14T15:16:31.311Z,21.40
2022-11-14T15:18:59.046Z,20.85
2022-11-14T15:21:28.863Z,22.33
2022-11-14T15:24:01.236Z,21.23
2022-11-14T15:26:30.024Z,20.95
2022-11-14T15:29:19.090Z,20.25
2022-11-14T15:31:52.467Z,21.60
2022-11-14T15:34:26.538Z,21.38
2022-11-14T15:37:21.394Z,19.73
2022-11-14T15:39:48.707Z,20.30
2022-11-14T15:42:24.056Z,20.92
2022-11-14T15:44:51.179Z,20.17
2022-11-14T15:47:40.160Z,20.60
2022-11-14T15:50:25.525Z,20.13
2022-11-14T15:52:59.442Z,21.25
2022-11-14T15:55:26.911Z,20.95
2022-11-14T15:58:13.579Z,21.33
2022-11-14T16:00:48.475Z,20.60
2022-11-14T16:03:19.198Z,21.03
2022-11-14T16:05:48.583Z,21.48
2022-11-14T16:08:15.069Z,21.08
2022-11-14T16:10:41.555Z,23.08
2022-11-14T16:13:08.280Z,22.58
2022-11-14T16:15:34.846Z,21.37
2022-11-14T16:18:01.380Z,20.85
2022-11-14T16:20:31.426Z,22.08
2022-11-14T16:22:59.223Z,22.38
2022-11-14T16:25:28.951Z,21.05
2022-11-14T16:27:55.851Z,21.57
2022-11-14T16:30:24.135Z,23.20
2022-11-14T16:32:51.505Z,21.25
2022-11-14T16:35:24.037Z,23.27
2022-11-14T16:37:52.874Z,21.70
2022-11-14T16:40:27.694Z,22.83
2022-11-14T16:42:55.870Z,22.20
2022-11-14T16:45:22.713Z,22.50
2022-11-14T16:47:50.054Z,22.23
2022-11-14T16:50:17.934Z,21.10
2022-11-14T16:52:44.557Z,21.83
2022-11-14T16:55:11.753Z,22.13
2022-11-14T16:57:39.824Z,20.58
2022-11-14T17:00:10.654Z,19.38
2022-11-14T17:02:37.474Z,20.02
2022-11-14T17:05:04.651Z,18.70
2022-11-14T17:07:33.487Z,18.85
2022-11-14T17:10:00.547Z,18.90
2022-11-14T17:12:28.285Z,19.92
2022-11-14T17:14:54.844Z,17.60
2022-11-14T17:17:22.031Z,16.83
2022-11-14T17:19:49.065Z,23.60
2022-11-14T17:22:17.980Z,16.80
2022-11-14T17:24:44.810Z,16.50
2022-11-14T17:27:12.897Z,17.60
2022-11-14T17:29:39.909Z,16.73
2022-11-14T17:32:06.573Z,16.38
2022-11-14T17:34:33.144Z,16.58
2022-11-14T17:36:59.662Z,16.80
2022-11-14T17:39:26.389Z,16.73
2022-11-14T17:41:53.226Z,16.03
2022-11-14T17:44:19.799Z,16.90
2022-11-14T17:46:47.327Z,16.08
2022-11-14T17:49:13.878Z,16.23
2022-11-14T17:51:40.382Z,16.15
2022-11-14T17:54:07.071Z,17.60
2022-11-14T17:56:33.632Z,16.23
2022-11-14T17:59:00.182Z,17.08
2022-11-14T18:01:26.869Z,17.65
2022-11-14T18:03:53.462Z,17.23
2022-11-14T18:06:21.249Z,17.53
2022-11-14T18:08:48.385Z,17.50
2022-11-14T18:11:17.349Z,18.00
2022-11-14T18:13:44.216Z,17.40
2022-11-14T18:16:16.631Z,17.33
2022-11-14T18:18:43.430Z,17.87
2022-11-14T18:21:17.051Z,17.83
2022-11-14T18:23:44.300Z,17.40
2022-11-14T18:26:15.703Z,18.00
2022-11-14T18:28:42.764Z,17.73
2022-11-14T18:31:11.105Z,19.43
2022-11-14T18:33:39.043Z,20.17
2022-11-14T18:36:09.065Z,20.73
2022-11-14T18:38:35.890Z,19.80
2022-11-14T18:41:06.851Z,18.65
2022-11-14T18:43:34.156Z,18.83
2022-11-14T18:46:09.293Z,19.80
2022-11-14T18:48:37.178Z,20.52
2022-11-14T18:51:06.700Z,19.75
2022-11-14T18:53:34.952Z,21.45
2022-11-14T18:56:06.005Z,22.10
2022-11-14T18:58:33.257Z,22.35
2022-11-14T19:01:10.831Z,21.35
2022-11-14T19:03:37.635Z,19.15
2022-11-14T19:06:05.681Z,25.17
2022-11-14T19:08:33.063Z,22.03
2022-11-14T19:11:07.726Z,18.30
2022-11-14T19:13:34.492Z,18.30
2022-11-14T19:16:05.427Z,17.10
2022-11-14T19:18:32.365Z,18.80
2022-11-14T19:21:02.929Z,18.17
2022-11-14T19:23:30.442Z,17.93
2022-11-14T19:26:00.845Z,17.57
2022-11-14T19:28:30.772Z,17.70
2022-11-14T19:31:04.357Z,17.63
2022-11-14T19:33:31.472Z,19.63
2022-11-14T19:35:58.929Z,20.20
2022-11-14T19:38:25.456Z,19.80
2022-11-14T19:40:52.294Z,20.15
2022-11-14T19:43:18.886Z,19.77
2022-11-14T19:45:45.486Z,20.15
2022-11-14T19:48:12.332Z,19.92
2022-11-14T19:50:38.924Z,20.53
2022-11-14T19:53:05.545Z,19.65
2022-11-14T19:55:32.195Z,19.95
2022-11-14T19:57:59.294Z,19.23
2022-11-14T20:00:26.817Z,19.30
2022-11-14T20:02:53.385Z,19.50
2022-11-14T20:05:20.359Z,19.85
2022-11-14T20:07:47.131Z,20.33
2022-11-14T20:10:13.919Z,19.73
2022-11-14T20:12:40.457Z,19.75
2022-11-14T20:15:07.477Z,21.00
2022-11-14T20:17:34.036Z,20.83
2022-11-14T20:20:00.516Z,19.75
2022-11-14T20:22:27.021Z,19.83
2022-11-14T20:24:53.544Z,21.77
2022-11-14T20:27:20.117Z,22.13
2022-11-14T20:29:46.655Z,21.15
2022-11-14T20:32:15.839Z,19.90
2022-11-14T20:34:42.558Z,19.77
2022-11-14T20:37:11.823Z,19.13
2022-11-14T20:39:39.012Z,20.43
2022-11-14T20:42:05.579Z,19.35
2022-11-14T20:44:32.179Z,20.90
2022-11-14T20:46:58.990Z,19.85
2022-11-14T20:49:25.667Z,19.65
2022-11-14T20:51:52.224Z,20.10
2022-11-14T20:54:18.781Z,22.10
2022-11-14T20:56:45.478Z,19.77
2022-11-14T20:59:12.143Z,19.95
2022-11-14T21:01:43.421Z,21.20
2022-11-14T21:04:11.195Z,19.23
2022-11-14T21:06:38.404Z,20.42
2022-11-14T21:09:04.942Z,21.27
2022-11-14T21:11:31.561Z,18.77
2022-11-14T21:13:58.967Z,19.77
2022-11-14T21:16:27.840Z,19.13
2022-11-14T21:18:55.301Z,18.77
2022-11-14T21:21:30.397Z,18.88
2022-11-14T21:23:57.540Z,20.63
2022-11-14T21:26:32.418Z,19.55
2022-11-14T21:29:01.591Z,20.03
2022-11-14T21:31:35.755Z,19.88
2022-11-14T21:34:05.060Z,20.42
2022-11-14T21:36:47.632Z,19.83
2022-11-14T21:39:16.507Z,21.83
2022-11-14T21:41:44.324Z,20.20
2022-11-14T21:44:13.210Z,18.77
2022-11-14T21:46:40.226Z,20.60
2022-11-14T21:49:06.751Z,20.40
2022-11-14T21:51:33.255Z,20.48
2022-11-14T21:53:59.985Z,19.13
2022-11-14T21:56:28.774Z,19.83
2022-11-14T21:59:15.110Z,20.52
2022-11-14T22:02:06.409Z,20.25
2022-11-14T22:04:33.522Z,19.63
2022-11-14T22:07:04.162Z,19.80
2022-11-14T22:09:31.026Z,20.60
2022-11-14T22:11:58.128Z,20.40
2022-11-14T22:14:25.061Z,20.38
2022-11-14T22:16:51.593Z,20.02
2022-11-14T22:19:18.995Z,22.83
2022-11-14T22:21:45.804Z,20.48
2022-11-14T22:24:12.326Z,21.95
2022-11-14T22:26:40.158Z,22.30
2022-11-14T22:29:07.764Z,22.23
2022-11-14T22:31:34.589Z,20.37
2022-11-14T22:34:01.190Z,21.92
2022-11-14T22:36:27.736Z,23.40
2022-11-14T22:38:55.868Z,21.35
2022-11-14T22:41:32.823Z,22.55
2022-11-14T22:44:00.369Z,23.20
2022-11-14T22:46:27.764Z,23.48
2022-11-14T22:48:55.099Z,23.92
2022-11-14T22:51:23.940Z,23.80
2022-11-14T22:53:53.372Z,25.23
2022-11-14T22:56:25.973Z,23.27
2022-11-14T22:58:52.558Z,23.83
